createdAt,value
2018-09-13T00:02:13.217Z,57.30
2018-09-13T00:04:41.565Z,57.60
2018-09-13T00:07:09.930Z,58.90
2018-09-13T00:09:38.298Z,58.20
2018-09-13T00:12:06.660Z,58.50
2018-09-13T00:14:35.002Z,58.80
2018-09-13T00:17:03.388Z,59.20
2018-09-13T00:19:31.786Z,58.80
2018-09-13T00:22:00.175Z,59.80
2018-09-13T00:24:28.597Z,60.70
2018-09-13T00:26:57.247Z,60.90
2018-09-13T00:29:25.632Z,60.90
2018-09-13T00:31:53.992Z,61.00
2018-09-13T00:34:22.427Z,61.60
2018-09-13T00:36:51.041Z,61.80
2018-09-13T00:39:19.383Z,62.70
2018-09-13T00:41:47.754Z,62.90
2018-09-13T00:44:16.118Z,63.30
2018-09-13T00:46:44.487Z,63.60
2018-09-13T00:49:12.834Z,63.20
2018-09-13T00:51:41.185Z,63.60
2018-09-13T00:54:09.553Z,64.20
2018-09-13T00:56:37.880Z,64.70
2018-09-13T00:59:06.350Z,65.40
2018-09-13T01:01:34.822Z,65.20
2018-09-13T01:04:03.163Z,65.50
2018-09-13T01:06:31.529Z,65.50
2018-09-13T01:09:00.094Z,65.60
2018-09-13T01:11:28.811Z,65.80
2018-09-13T01:13:57.169Z,65.80
2018-09-13T01:16:25.529Z,65.60
2018-09-13T01:18:53.887Z,65.50
2018-09-13T01:21:22.206Z,65.70
2018-09-13T01:23:50.556Z,65.20
2018-09-13T01:26:18.893Z,65.20
2018-09-13T01:28:47.304Z,64.20
2018-09-13T01:31:15.682Z,64.10
2018-09-13T01:33:44.074Z,63.70
2018-09-13T01:36:12.829Z,63.50
2018-09-13T01:38:41.209Z,63.50
2018-09-13T01:41:09.553Z,63.30
2018-09-13T01:43:37.944Z,63.10
2018-09-13T01:46:06.378Z,62.90
2018-09-13T01:48:34.698Z,63.10
2018-09-13T01:51:03.192Z,63.10
2018-09-13T01:53:31.607Z,62.80
2018-09-13T01:55:59.943Z,63.10
2018-09-13T01:58:28.310Z,63.30
2018-09-13T02:03:31.400Z,63.30
2018-09-13T02:05:59.743Z,63.40
2018-09-13T02:08:28.141Z,63.40
2018-09-13T02:10:56.563Z,63.40
2018-09-13T02:13:25.035Z,63.50
2018-09-13T02:15:53.378Z,63.50
2018-09-13T02:18:21.778Z,63.00
2018-09-13T02:20:50.151Z,63.90
2018-09-13T02:23:18.545Z,63.90
2018-09-13T02:25:46.875Z,64.50
2018-09-13T02:28:15.213Z,64.20
2018-09-13T02:30:43.628Z,64.20
2018-09-13T02:33:11.958Z,64.20
2018-09-13T02:35:40.385Z,63.90
2018-09-13T02:38:08.765Z,64.10
2018-09-13T02:40:37.137Z,64.00
2018-09-13T02:43:05.550Z,63.90
2018-09-13T02:45:33.953Z,64.10
2018-09-13T02:48:02.302Z,64.50
2018-09-13T02:50:30.628Z,64.20
2018-09-13T02:52:59.020Z,64.10
2018-09-13T02:55:27.337Z,64.90
2018-09-13T02:57:55.715Z,65.60
2018-09-13T03:00:24.475Z,66.10
2018-09-13T03:02:52.796Z,66.10
2018-09-13T03:05:21.119Z,66.30
2018-09-13T03:07:49.456Z,66.20
2018-09-13T03:10:17.835Z,66.30
2018-09-13T03:12:46.214Z,66.60
2018-09-13T03:15:15.767Z,67.30
2018-09-13T03:17:44.250Z,67.40
2018-09-13T03:20:12.578Z,67.80
2018-09-13T03:22:40.926Z,68.60
2018-09-13T03:25:10.359Z,68.30
2018-09-13T03:27:38.765Z,68.80
2018-09-13T03:30:08.197Z,68.10
2018-09-13T03:32:36.639Z,68.80
2018-09-13T03:35:06.108Z,68.30
2018-09-13T03:37:34.460Z,68.50
2018-09-13T03:40:03.364Z,68.80
2018-09-13T03:42:31.734Z,68.80
2018-09-13T03:47:40.935Z,68.80
2018-09-13T03:50:11.212Z,69.00
2018-09-13T03:52:40.732Z,68.70
2018-09-13T03:55:10.567Z,68.80
2018-09-13T03:57:39.279Z,68.80
2018-09-13T04:00:08.095Z,69.90
2018-09-13T04:02:36.544Z,69.00
2018-09-13T04:05:05.089Z,68.90
2018-09-13T04:07:33.884Z,69.00
2018-09-13T04:10:02.254Z,68.70
2018-09-13T04:12:31.753Z,68.60
2018-09-13T04:15:00.148Z,68.70
2018-09-13T04:17:28.560Z,68.70
2018-09-13T04:19:56.976Z,69.20
2018-09-13T04:22:25.380Z,68.90
2018-09-13T04:24:54.070Z,68.90
2018-09-13T04:27:22.527Z,68.90
2018-09-13T04:29:50.942Z,68.90
2018-09-13T04:32:19.312Z,68.80
2018-09-13T04:34:47.706Z,69.40
2018-09-13T04:37:17.073Z,69.50
2018-09-13T04:39:45.484Z,69.80
2018-09-13T04:42:14.092Z,69.30
2018-09-13T04:44:42.530Z,69.20
2018-09-13T04:47:10.952Z,69.30
2018-09-13T04:49:39.470Z,69.30
2018-09-13T04:52:07.912Z,69.40
2018-09-13T04:54:36.320Z,69.20
2018-09-13T04:57:04.843Z,69.50
2018-09-13T04:59:33.183Z,69.80
2018-09-13T05:02:01.578Z,69.40
2018-09-13T05:04:30.273Z,69.20
2018-09-13T05:06:58.625Z,69.50
2018-09-13T05:09:27.060Z,69.10
2018-09-13T05:11:55.401Z,69.10
2018-09-13T05:14:24.831Z,70.20
2018-09-13T05:16:53.211Z,69.20
2018-09-13T05:19:21.568Z,69.20
2018-09-13T05:21:50.116Z,69.20
2018-09-13T05:24:18.565Z,69.20
2018-09-13T05:26:46.899Z,69.30
2018-09-13T05:29:15.247Z,69.30
2018-09-13T05:31:43.722Z,69.30
2018-09-13T05:34:12.076Z,69.20
2018-09-13T05:36:40.512Z,69.20
2018-09-13T05:39:12.688Z,69.10
2018-09-13T05:41:42.030Z,68.70
2018-09-13T05:44:10.321Z,69.40
2018-09-13T05:46:38.973Z,69.70
2018-09-13T05:49:07.436Z,69.20
2018-09-13T05:51:36.103Z,69.30
2018-09-13T05:54:11.146Z,69.20
2018-09-13T05:56:39.489Z,69.00
2018-09-13T05:59:07.833Z,69.00
2018-09-13T06:01:36.297Z,68.80
2018-09-13T06:04:04.644Z,68.30
2018-09-13T06:06:32.996Z,68.20
2018-09-13T06:09:01.336Z,68.40
2018-09-13T06:11:29.665Z,67.90
2018-09-13T06:13:58.009Z,68.30
2018-09-13T06:16:26.429Z,68.40
2018-09-13T06:18:54.840Z,67.80
2018-09-13T06:21:23.231Z,67.30
2018-09-13T06:23:51.591Z,66.10
2018-09-13T06:26:19.982Z,66.10
2018-09-13T06:28:48.365Z,67.40
2018-09-13T06:31:16.759Z,66.90
2018-09-13T06:33:45.432Z,66.80
2018-09-13T06:36:14.758Z,67.40
2018-09-13T06:38:43.102Z,67.10
2018-09-13T06:41:11.548Z,67.00
2018-09-13T06:43:39.839Z,67.50
2018-09-13T06:46:08.300Z,67.40
2018-09-13T06:48:36.847Z,66.20
2018-09-13T06:51:05.254Z,65.70
2018-09-13T06:53:34.015Z,65.60
2018-09-13T06:56:03.422Z,64.60
2018-09-13T06:58:32.835Z,65.00
2018-09-13T07:01:01.336Z,65.10
2018-09-13T07:03:30.690Z,65.50
2018-09-13T07:05:59.065Z,64.70
2018-09-13T07:08:27.451Z,66.10
2018-09-13T07:10:56.670Z,68.20
2018-09-13T07:13:25.479Z,69.20
2018-09-13T07:15:53.920Z,68.70
2018-09-13T07:18:22.321Z,68.40
2018-09-13T07:20:50.677Z,68.30
2018-09-13T07:23:19.015Z,69.60
2018-09-13T07:25:47.480Z,70.70
2018-09-13T07:28:15.856Z,71.10
2018-09-13T07:30:44.328Z,73.00
2018-09-13T07:33:12.681Z,73.40
2018-09-13T07:35:41.216Z,74.20
2018-09-13T07:38:09.811Z,74.60
2018-09-13T07:40:38.213Z,74.90
2018-09-13T07:43:07.659Z,75.50
2018-09-13T07:45:36.144Z,75.70
2018-09-13T07:48:04.605Z,75.70
2018-09-13T07:50:33.147Z,76.00
2018-09-13T07:53:01.475Z,76.30
2018-09-13T07:55:29.977Z,76.50
2018-09-13T07:57:58.750Z,76.80
2018-09-13T08:00:27.081Z,76.20
2018-09-13T08:02:55.480Z,76.40
2018-09-13T08:05:23.850Z,75.20
2018-09-13T08:07:52.191Z,75.20
2018-09-13T08:10:20.623Z,73.20
2018-09-13T08:12:48.970Z,73.90
2018-09-13T08:15:17.336Z,75.20
2018-09-13T08:17:45.724Z,75.00
2018-09-13T08:20:14.093Z,74.60
2018-09-13T08:22:42.461Z,74.60
2018-09-13T08:25:10.880Z,74.60
2018-09-13T08:27:39.256Z,74.90
2018-09-13T08:30:07.716Z,75.40
2018-09-13T08:32:36.100Z,74.80
2018-09-13T08:35:04.575Z,75.50
2018-09-13T08:37:32.923Z,76.00
2018-09-13T08:40:01.331Z,74.30
2018-09-13T08:42:29.773Z,74.70
2018-09-13T08:44:58.106Z,74.50
2018-09-13T08:47:26.464Z,75.50
2018-09-13T08:49:54.775Z,74.20
2018-09-13T08:52:23.091Z,72.50
2018-09-13T08:54:51.392Z,70.70
2018-09-13T08:57:19.755Z,71.90
2018-09-13T08:59:48.060Z,72.20
2018-09-13T09:02:16.422Z,73.00
2018-09-13T09:04:44.870Z,73.10
2018-09-13T09:07:13.178Z,73.30
2018-09-13T09:09:41.821Z,73.00
2018-09-13T09:12:10.363Z,72.80
2018-09-13T09:14:38.693Z,72.40
2018-09-13T09:17:07.177Z,72.70
2018-09-13T09:19:35.522Z,72.50
2018-09-13T09:22:03.845Z,73.60
2018-09-13T09:24:32.145Z,74.10
2018-09-13T09:27:00.749Z,74.00
2018-09-13T09:29:29.100Z,74.30
2018-09-13T09:31:57.452Z,72.50
2018-09-13T09:34:25.792Z,72.80
2018-09-13T09:36:54.165Z,73.60
2018-09-13T09:39:22.481Z,73.90
2018-09-13T09:41:50.815Z,73.30
2018-09-13T09:44:19.250Z,73.50
2018-09-13T09:46:47.488Z,72.60
2018-09-13T09:49:15.816Z,72.90
2018-09-13T09:51:44.134Z,73.10
2018-09-13T09:54:12.424Z,73.00
2018-09-13T09:56:40.809Z,73.30
2018-09-13T09:59:09.200Z,74.10
2018-09-13T10:01:42.900Z,73.10
2018-09-13T10:04:12.566Z,72.10
2018-09-13T10:06:41.823Z,72.30
2018-09-13T10:09:10.223Z,71.70
2018-09-13T10:11:38.623Z,70.80
2018-09-13T10:14:07.194Z,70.00
2018-09-13T10:16:40.928Z,68.40
2018-09-13T10:20:18.663Z,68.60
2018-09-13T10:22:52.525Z,68.80
2018-09-13T10:25:26.251Z,68.50
2018-09-13T10:28:00.061Z,66.50
2018-09-13T10:30:33.666Z,66.60
2018-09-13T10:33:07.465Z,66.00
2018-09-13T10:35:41.268Z,65.60
2018-09-13T10:38:14.985Z,66.90
2018-09-13T10:40:48.847Z,66.90
2018-09-13T10:43:22.615Z,67.00
2018-09-13T10:45:56.306Z,67.40
2018-09-13T10:48:29.473Z,68.00
2018-09-13T10:51:03.314Z,67.90
2018-09-13T10:53:51.077Z,67.60
2018-09-13T10:56:19.677Z,67.10
2018-09-13T10:58:48.146Z,68.10
2018-09-13T11:01:17.582Z,67.80
2018-09-13T11:03:46.194Z,68.20
2018-09-13T11:06:14.576Z,66.80
2018-09-13T11:08:42.905Z,68.20
2018-09-13T11:11:11.423Z,68.10
2018-09-13T11:14:47.842Z,68.70
2018-09-13T11:17:16.319Z,67.60
2018-09-13T11:19:44.754Z,67.40
2018-09-13T11:22:13.255Z,68.50
2018-09-13T11:24:41.704Z,67.90
2018-09-13T11:27:10.206Z,67.20
2018-09-13T11:29:38.506Z,67.40
2018-09-13T11:32:06.855Z,67.90
2018-09-13T11:34:35.224Z,66.80
2018-09-13T11:37:03.553Z,66.90
2018-09-13T11:39:31.847Z,65.60
2018-09-13T11:42:00.313Z,66.10
2018-09-13T11:44:28.661Z,66.00
2018-09-13T11:46:57.252Z,65.90
2018-09-13T11:49:25.559Z,66.00
2018-09-13T11:51:53.983Z,65.30
2018-09-13T11:54:22.390Z,63.40
2018-09-13T11:56:50.716Z,64.70
2018-09-13T11:59:19.112Z,63.00
2018-09-13T12:01:47.461Z,63.00
2018-09-13T12:04:15.792Z,63.40
2018-09-13T12:06:44.088Z,63.40
2018-09-13T12:09:13.973Z,62.80
2018-09-13T12:11:42.463Z,63.00
2018-09-13T12:14:11.133Z,62.90
2018-09-13T12:16:39.225Z,63.50
2018-09-13T12:19:08.207Z,61.90
2018-09-13T12:21:36.563Z,61.80
2018-09-13T12:24:05.658Z,62.30
2018-09-13T12:26:33.963Z,61.40
2018-09-13T12:29:02.623Z,62.30
2018-09-13T12:31:31.102Z,61.70
2018-09-13T12:33:59.608Z,61.50
2018-09-13T12:36:28.641Z,61.30
2018-09-13T12:38:57.163Z,61.60
2018-09-13T12:41:25.474Z,61.50
2018-09-13T12:43:53.801Z,61.60
2018-09-13T12:46:22.161Z,60.70
2018-09-13T12:48:50.570Z,61.80
2018-09-13T12:51:18.888Z,61.10
2018-09-13T12:53:47.253Z,61.90
2018-09-13T12:56:15.675Z,60.40
2018-09-13T12:58:44.068Z,61.30
2018-09-13T13:01:12.636Z,59.90
2018-09-13T13:03:40.988Z,60.90
2018-09-13T13:06:09.321Z,60.00
2018-09-13T13:08:37.867Z,60.60
2018-09-13T13:11:06.552Z,59.50
2018-09-13T13:13:34.915Z,61.00
2018-09-13T13:16:03.288Z,60.10
2018-09-13T13:18:31.852Z,59.60
2018-09-13T13:21:00.406Z,59.70
2018-09-13T13:23:28.843Z,59.70
2018-09-13T13:25:57.385Z,59.70
2018-09-13T13:28:25.691Z,59.10
2018-09-13T13:30:54.095Z,60.40
2018-09-13T13:33:22.477Z,58.30
2018-09-13T13:35:50.900Z,58.00
2018-09-13T13:38:19.491Z,58.20
2018-09-13T13:40:47.930Z,57.10
2018-09-13T13:43:16.267Z,58.00
2018-09-13T13:45:45.918Z,57.50
2018-09-13T13:48:14.360Z,56.80
2018-09-13T13:50:43.897Z,57.10
2018-09-13T13:53:12.297Z,55.10
2018-09-13T13:55:40.755Z,55.90
2018-09-13T13:58:10.088Z,55.20
2018-09-13T14:00:38.515Z,55.40
2018-09-13T14:03:06.956Z,55.10
2018-09-13T14:05:35.664Z,56.10
2018-09-13T14:08:04.155Z,56.60
2018-09-13T14:10:32.628Z,55.90
2018-09-13T14:13:00.990Z,55.80
2018-09-13T14:15:29.432Z,55.70
2018-09-13T14:17:58.784Z,56.70
2018-09-13T14:20:27.293Z,56.40
2018-09-13T14:22:55.731Z,56.40
2018-09-13T14:25:24.199Z,56.10
2018-09-13T14:27:52.749Z,56.20
2018-09-13T14:30:22.265Z,56.50
2018-09-13T14:32:50.648Z,56.80
2018-09-13T14:35:19.033Z,56.50
2018-09-13T14:37:47.493Z,55.80
2018-09-13T14:40:15.829Z,55.60
2018-09-13T14:42:44.219Z,55.60
2018-09-13T14:45:12.618Z,55.20
2018-09-13T14:47:41.052Z,55.80
2018-09-13T14:50:09.428Z,54.70
2018-09-13T14:52:37.914Z,54.30
2018-09-13T14:55:06.352Z,54.00
2018-09-13T14:57:34.767Z,54.10
2018-09-13T15:00:03.330Z,54.20
2018-09-13T15:02:31.662Z,55.00
2018-09-13T15:05:00.024Z,54.30
2018-09-13T15:07:28.395Z,54.70
2018-09-13T15:09:56.687Z,55.50
2018-09-13T15:12:25.079Z,53.90
2018-09-13T15:14:53.419Z,54.50
2018-09-13T15:17:21.795Z,54.60
2018-09-13T15:19:50.302Z,54.50
2018-09-13T15:22:18.627Z,54.40
2018-09-13T15:24:46.949Z,54.80
2018-09-13T15:27:15.303Z,55.30
2018-09-13T15:29:43.683Z,55.10
2018-09-13T15:32:12.030Z,54.70
2018-09-13T15:34:40.568Z,54.80
2018-09-13T15:37:09.058Z,55.20
2018-09-13T15:39:37.440Z,54.70
2018-09-13T15:42:05.795Z,55.20
2018-09-13T15:44:34.132Z,55.10
2018-09-13T15:47:02.680Z,55.00
2018-09-13T15:49:31.002Z,55.10
2018-09-13T15:51:59.330Z,55.10
2018-09-13T15:54:27.899Z,54.70
2018-09-13T15:57:03.172Z,55.40
2018-09-13T15:59:31.717Z,55.50
2018-09-13T16:02:00.198Z,55.20
2018-09-13T16:04:29.542Z,55.80
2018-09-13T16:06:58.054Z,55.90
2018-09-13T16:09:26.442Z,55.70
2018-09-13T16:11:55.765Z,56.40
2018-09-13T16:14:24.473Z,56.50
2018-09-13T16:16:53.667Z,56.10
2018-09-13T16:19:22.070Z,56.70
2018-09-13T16:21:50.571Z,56.60
2018-09-13T16:24:19.598Z,57.00
2018-09-13T16:26:48.070Z,56.80
2018-09-13T16:29:16.452Z,57.00
2018-09-13T16:31:44.846Z,57.20
2018-09-13T16:34:13.211Z,57.30
2018-09-13T16:36:46.996Z,57.90
2018-09-13T16:39:24.508Z,57.00
2018-09-13T16:41:58.072Z,56.70
2018-09-13T16:44:31.718Z,57.10
2018-09-13T16:47:06.390Z,57.40
2018-09-13T16:49:36.608Z,57.80
2018-09-13T16:52:05.004Z,57.90
2018-09-13T16:54:33.322Z,57.50
2018-09-13T16:57:02.062Z,57.60
2018-09-13T16:59:30.420Z,57.40
2018-09-13T17:01:59.170Z,58.30
2018-09-13T17:04:27.485Z,58.20
2018-09-13T17:06:55.970Z,58.40
2018-09-13T17:09:25.125Z,57.90
2018-09-13T17:11:53.448Z,58.40
2018-09-13T17:14:21.819Z,58.80
2018-09-13T17:16:50.387Z,58.70
2018-09-13T17:19:18.719Z,58.90
2018-09-13T17:21:47.053Z,59.30
2018-09-13T17:24:16.478Z,58.40
2018-09-13T17:26:44.840Z,59.00
2018-09-13T17:29:13.264Z,58.80
2018-09-13T17:31:41.619Z,58.80
2018-09-13T17:34:10.162Z,59.20
2018-09-13T17:36:38.802Z,59.20
2018-09-13T17:39:11.227Z,58.90
2018-09-13T17:41:39.666Z,59.10
2018-09-13T17:44:08.048Z,59.50
2018-09-13T17:46:36.579Z,60.10
2018-09-13T17:49:05.021Z,59.90
2018-09-13T17:51:33.401Z,60.20
2018-09-13T17:54:01.874Z,59.80
2018-09-13T17:56:30.477Z,60.30
2018-09-13T17:58:58.844Z,60.40
2018-09-13T18:01:27.360Z,60.80
2018-09-13T18:03:55.788Z,61.20
2018-09-13T18:06:24.247Z,61.50
2018-09-13T18:08:52.672Z,61.90
2018-09-13T18:11:21.198Z,62.30
2018-09-13T18:13:50.315Z,62.30
2018-09-13T18:16:18.985Z,62.60
2018-09-13T18:18:47.565Z,62.70
2018-09-13T18:21:15.957Z,62.50
2018-09-13T18:23:44.435Z,62.90
2018-09-13T18:26:12.860Z,63.10
2018-09-13T18:28:41.357Z,63.60
2018-09-13T18:31:09.856Z,64.00
2018-09-13T18:33:38.378Z,63.90
2018-09-13T18:36:06.826Z,63.80
2018-09-13T18:38:35.368Z,63.90
2018-09-13T18:41:05.035Z,64.10
2018-09-13T18:43:33.465Z,64.20
2018-09-13T18:46:01.989Z,64.50
2018-09-13T18:48:30.464Z,64.60
2018-09-13T18:50:58.866Z,64.40
2018-09-13T18:53:27.265Z,64.90
2018-09-13T18:55:55.683Z,64.90
2018-09-13T18:58:24.185Z,64.90
2018-09-13T19:00:52.682Z,65.20
2018-09-13T19:03:21.133Z,66.00
2018-09-13T19:05:49.608Z,65.30
2018-09-13T19:08:18.016Z,65.50
2018-09-13T19:10:46.582Z,65.70
2018-09-13T19:13:15.020Z,66.00
2018-09-13T19:15:43.392Z,66.70
2018-09-13T19:18:11.943Z,66.40
2018-09-13T19:20:40.479Z,67.10
2018-09-13T19:23:08.863Z,67.40
2018-09-13T19:25:43.961Z,68.00
2018-09-13T19:28:12.353Z,68.80
2018-09-13T19:30:40.755Z,69.40
2018-09-13T19:33:09.224Z,69.90
2018-09-13T19:35:37.732Z,70.40
2018-09-13T19:38:06.436Z,70.90
2018-09-13T19:40:34.939Z,71.10
2018-09-13T19:43:03.339Z,72.60
2018-09-13T19:45:31.737Z,72.10
2018-09-13T19:48:00.135Z,72.60
2018-09-13T19:50:28.614Z,72.10
2018-09-13T19:52:56.933Z,73.20
2018-09-13T19:55:25.428Z,73.10
2018-09-13T19:57:53.802Z,73.70
2018-09-13T20:00:22.183Z,74.30
2018-09-13T20:02:50.507Z,74.60
2018-09-13T20:05:18.959Z,74.80
2018-09-13T20:07:47.293Z,75.30
2018-09-13T20:10:15.781Z,75.20
2018-09-13T20:12:44.125Z,75.50
2018-09-13T20:15:12.583Z,75.80
2018-09-13T20:17:40.939Z,75.90
2018-09-13T20:20:09.332Z,76.30
2018-09-13T20:22:37.700Z,76.50
2018-09-13T20:25:06.128Z,76.60
2018-09-13T20:27:34.544Z,76.90
2018-09-13T20:30:02.941Z,77.10
2018-09-13T20:32:31.358Z,77.10
2018-09-13T20:34:59.741Z,77.60
2018-09-13T20:37:28.159Z,77.80
2018-09-13T20:39:56.526Z,77.90
2018-09-13T20:42:25.060Z,77.80
2018-09-13T20:44:53.388Z,78.00
2018-09-13T20:47:21.708Z,79.00
2018-09-13T20:49:50.023Z,78.30
2018-09-13T20:52:18.449Z,78.50
2018-09-13T20:54:46.851Z,78.60
2018-09-13T20:57:15.227Z,78.50
2018-09-13T20:59:43.588Z,78.90
2018-09-13T21:02:12.015Z,79.20
2018-09-13T21:04:40.421Z,79.60
2018-09-13T21:07:08.823Z,79.20
2018-09-13T21:09:37.153Z,79.10
2018-09-13T21:12:05.463Z,79.20
2018-09-13T21:14:33.841Z,78.90
2018-09-13T21:17:02.176Z,78.80
2018-09-13T21:19:30.425Z,79.10
2018-09-13T21:21:58.818Z,79.30
2018-09-13T21:24:27.150Z,79.40
2018-09-13T21:26:57.124Z,79.80
2018-09-13T21:29:25.454Z,79.90
2018-09-13T21:31:53.789Z,79.90
2018-09-13T21:34:22.264Z,79.80
2018-09-13T21:36:50.710Z,79.90
2018-09-13T21:39:19.069Z,79.80
2018-09-13T21:41:47.528Z,79.80
2018-09-13T21:44:16.010Z,79.80
2018-09-13T21:46:44.304Z,80.20
2018-09-13T21:49:12.831Z,80.40
2018-09-13T21:51:41.271Z,80.60
2018-09-13T21:54:09.658Z,80.80
2018-09-13T21:56:38.010Z,81.10
2018-09-13T21:59:06.517Z,81.20
2018-09-13T22:01:34.862Z,81.30
2018-09-13T22:04:03.568Z,81.50
2018-09-13T22:06:31.936Z,81.40
2018-09-13T22:09:09.137Z,81.70
2018-09-13T22:11:39.027Z,81.90
2018-09-13T22:14:07.628Z,81.90
2018-09-13T22:16:36.026Z,81.90
2018-09-13T22:19:04.445Z,81.80
2018-09-13T22:21:33.286Z,81.50
2018-09-13T22:24:01.764Z,81.50
2018-09-13T22:26:30.510Z,81.70
2018-09-13T22:28:58.978Z,81.50
2018-09-13T22:31:27.287Z,81.90
2018-09-13T22:33:55.992Z,81.60
2018-09-13T22:36:28.492Z,82.10
2018-09-13T22:39:01.252Z,82.20
2018-09-13T22:41:29.699Z,82.00
2018-09-13T22:43:58.072Z,82.10
2018-09-13T22:46:26.456Z,82.20
2018-09-13T22:48:54.850Z,82.20
2018-09-13T22:51:23.251Z,82.20
2018-09-13T22:53:51.588Z,82.10
2018-09-13T22:56:20.057Z,82.40
2018-09-13T22:58:48.410Z,82.70
2018-09-13T23:01:16.720Z,82.70
2018-09-13T23:03:45.021Z,82.20
2018-09-13T23:06:13.375Z,82.60
2018-09-13T23:08:41.817Z,82.60
2018-09-13T23:11:10.207Z,82.60
2018-09-13T23:13:38.548Z,82.80
2018-09-13T23:16:07.112Z,83.10
2018-09-13T23:18:35.446Z,83.00
2018-09-13T23:21:03.793Z,83.00
2018-09-13T23:23:32.150Z,83.10
2018-09-13T23:26:00.541Z,83.50
2018-09-13T23:28:28.896Z,83.50
2018-09-13T23:30:57.335Z,83.20
2018-09-13T23:33:25.690Z,83.10
2018-09-13T23:35:54.048Z,82.70
2018-09-13T23:38:22.346Z,82.50
2018-09-13T23:40:50.790Z,82.60
2018-09-13T23:43:19.110Z,82.40
2018-09-13T23:45:47.448Z,82.30
2018-09-13T23:48:15.872Z,81.90
2018-09-13T23:50:44.257Z,81.70
2018-09-13T23:53:12.818Z,82.10
2018-09-13T23:55:41.531Z,81.40
2018-09-13T23:58:09.903Z,81.20
